X  Kiinni Metar Aviation säätiedot     LBPD Plovdiv International Airport
Lämpötila
70°F Lämpötila
59°F Kastepiste
69% Kosteus



Tuuli
2 MPH
3 KM/T
1 M/S
2 KTS



Rauhoittaa
P
Nykyiset olosuhteet

Kirkas Kirkas
Paine 1011.85 (hPa) - 29.88 (inHg)
Näkyvyys 6 (maili) - 9.7 (km)
Lentokenttä
Lentokentän koodi LBPD

Sijainti: Plovdiv International Airport
Etäisyys: 14 (mi)

Metar:
LBPD 240500Z AUTO VRB02KT 9999 NCD 21/15 Q1012 NOSIG

Aika: 24-06-2024 08:00 EEST